sensor_id;sensor_type;location;lat;lon;timestamp;pressure;altitude;pressure_sealevel;temperature;humidity
11329;BME280;5719;42.714;23.732;2023-03-14T00:01:12;94669.16;;;4.57;52.67
11329;BME280;5719;42.714;23.732;2023-03-14T00:03:39;94667.41;;;4.58;52.73
11329;BME280;5719;42.714;23.732;2023-03-14T00:06:07;94665.69;;;4.58;53.43
11329;BME280;5719;42.714;23.732;2023-03-14T00:08:34;94656.53;;;4.53;52.82
11329;BME280;5719;42.714;23.732;2023-03-14T00:11:04;94656.69;;;4.50;53.35
11329;BME280;5719;42.714;23.732;2023-03-14T00:13:31;94655.03;;;4.49;53.36
11329;BME280;5719;42.714;23.732;2023-03-14T00:16:03;94647.84;;;4.38;54.03
11329;BME280;5719;42.714;23.732;2023-03-14T00:18:30;94646.31;;;4.34;54.07
11329;BME280;5719;42.714;23.732;2023-03-14T00:20:58;94654.28;;;4.28;54.89
11329;BME280;5719;42.714;23.732;2023-03-14T00:23:26;94647.81;;;4.19;54.28
11329;BME280;5719;42.714;23.732;2023-03-14T00:25:53;94651.28;;;4.00;54.83
11329;BME280;5719;42.714;23.732;2023-03-14T00:28:20;94640.16;;;4.01;55.71
11329;BME280;5719;42.714;23.732;2023-03-14T00:30:47;94636.00;;;3.98;55.86
11329;BME280;5719;42.714;23.732;2023-03-14T00:33:15;94619.94;;;3.94;54.50
11329;BME280;5719;42.714;23.732;2023-03-14T00:35:42;94619.44;;;3.86;55.11
11329;BME280;5719;42.714;23.732;2023-03-14T00:38:09;94618.91;;;3.80;54.79
11329;BME280;5719;42.714;23.732;2023-03-14T00:40:39;94613.09;;;3.76;55.25
11329;BME280;5719;42.714;23.732;2023-03-14T00:43:06;94613.22;;;3.73;56.13
11329;BME280;5719;42.714;23.732;2023-03-14T00:45:32;94603.84;;;3.74;55.96
11329;BME280;5719;42.714;23.732;2023-03-14T00:48:00;94594.50;;;3.73;56.45
11329;BME280;5719;42.714;23.732;2023-03-14T00:50:28;94592.91;;;3.70;56.50
11329;BME280;5719;42.714;23.732;2023-03-14T00:52:55;94593.19;;;3.44;57.52
11329;BME280;5719;42.714;23.732;2023-03-14T00:55:22;94577.72;;;3.47;58.24
11329;BME280;5719;42.714;23.732;2023-03-14T00:57:49;94579.25;;;3.51;57.48
11329;BME280;5719;42.714;23.732;2023-03-14T01:00:16;94576.84;;;3.48;58.33
11329;BME280;5719;42.714;23.732;2023-03-14T01:02:43;94572.00;;;3.42;58.75
11329;BME280;5719;42.714;23.732;2023-03-14T01:05:10;94583.88;;;3.43;58.81
11329;BME280;5719;42.714;23.732;2023-03-14T01:07:38;94588.28;;;3.39;59.16
11329;BME280;5719;42.714;23.732;2023-03-14T01:10:06;94587.84;;;3.30;59.71
11329;BME280;5719;42.714;23.732;2023-03-14T01:12:33;94587.09;;;3.28;59.23
11329;BME280;5719;42.714;23.732;2023-03-14T01:15:00;94584.59;;;3.26;59.29
11329;BME280;5719;42.714;23.732;2023-03-14T01:17:27;94569.44;;;3.22;59.24
11329;BME280;5719;42.714;23.732;2023-03-14T01:19:54;94567.09;;;3.17;59.29
11329;BME280;5719;42.714;23.732;2023-03-14T01:22:21;94569.63;;;3.17;60.01
11329;BME280;5719;42.714;23.732;2023-03-14T01:24:49;94563.81;;;3.14;59.85
11329;BME280;5719;42.714;23.732;2023-03-14T01:27:16;94557.97;;;3.12;59.85
11329;BME280;5719;42.714;23.732;2023-03-14T01:29:42;94558.94;;;3.09;60.33
11329;BME280;5719;42.714;23.732;2023-03-14T01:32:09;94554.53;;;3.13;60.56
11329;BME280;5719;42.714;23.732;2023-03-14T01:34:36;94555.53;;;3.09;60.61
11329;BME280;5719;42.714;23.732;2023-03-14T01:37:03;94553.38;;;3.00;59.97
11329;BME280;5719;42.714;23.732;2023-03-14T01:39:30;94563.72;;;2.96;60.04
11329;BME280;5719;42.714;23.732;2023-03-14T01:41:59;94553.75;;;2.90;59.91
11329;BME280;5719;42.714;23.732;2023-03-14T01:44:26;94557.94;;;2.91;60.04
11329;BME280;5719;42.714;23.732;2023-03-14T01:46:53;94556.22;;;2.92;60.20
11329;BME280;5719;42.714;23.732;2023-03-14T01:49:24;94552.09;;;2.89;60.32
11329;BME280;5719;42.714;23.732;2023-03-14T01:51:56;94546.22;;;2.87;59.84
11329;BME280;5719;42.714;23.732;2023-03-14T01:54:26;94541.44;;;2.80;60.13
11329;BME280;5719;42.714;23.732;2023-03-14T01:57:01;94534.84;;;2.74;59.86
11329;BME280;5719;42.714;23.732;2023-03-14T01:59:31;94543.38;;;2.73;60.32
11329;BME280;5719;42.714;23.732;2023-03-14T02:01:59;94536.81;;;2.68;60.34
11329;BME280;5719;42.714;23.732;2023-03-14T02:04:28;94541.09;;;2.67;59.96
11329;BME280;5719;42.714;23.732;2023-03-14T02:07:04;94536.06;;;2.66;60.89
11329;BME280;5719;42.714;23.732;2023-03-14T02:09:32;94545.50;;;2.64;60.58
11329;BME280;5719;42.714;23.732;2023-03-14T02:12:00;94537.31;;;2.34;62.58
11329;BME280;5719;42.714;23.732;2023-03-14T02:14:31;94546.78;;;2.32;63.32
11329;BME280;5719;42.714;23.732;2023-03-14T02:17:00;94548.38;;;2.34;62.66
11329;BME280;5719;42.714;23.732;2023-03-14T02:19:48;94548.44;;;2.33;63.27
11329;BME280;5719;42.714;23.732;2023-03-14T02:22:17;94545.19;;;2.29;62.87
11329;BME280;5719;42.714;23.732;2023-03-14T02:24:54;94534.97;;;2.29;63.71
11329;BME280;5719;42.714;23.732;2023-03-14T02:27:25;94544.47;;;2.26;63.03
11329;BME280;5719;42.714;23.732;2023-03-14T02:29:56;94543.50;;;2.28;62.79
11329;BME280;5719;42.714;23.732;2023-03-14T02:32:26;94535.03;;;2.28;63.44
11329;BME280;5719;42.714;23.732;2023-03-14T02:34:56;94533.34;;;2.27;63.55
11329;BME280;5719;42.714;23.732;2023-03-14T02:37:27;94546.19;;;2.25;63.25
11329;BME280;5719;42.714;23.732;2023-03-14T02:39:56;94546.25;;;2.24;63.70
11329;BME280;5719;42.714;23.732;2023-03-14T02:42:25;94538.63;;;2.22;63.41
11329;BME280;5719;42.714;23.732;2023-03-14T02:44:54;94538.72;;;2.21;63.59
11329;BME280;5719;42.714;23.732;2023-03-14T02:47:28;94538.16;;;2.13;63.20
11329;BME280;5719;42.714;23.732;2023-03-14T02:50:00;94532.19;;;2.14;63.20
11329;BME280;5719;42.714;23.732;2023-03-14T02:52:28;94531.41;;;2.12;64.09
11329;BME280;5719;42.714;23.732;2023-03-14T02:54:55;94519.69;;;2.08;64.00
11329;BME280;5719;42.714;23.732;2023-03-14T02:57:21;94506.41;;;2.00;62.80
11329;BME280;5719;42.714;23.732;2023-03-14T02:59:50;94511.84;;;1.90;63.57
11329;BME280;5719;42.714;23.732;2023-03-14T03:02:16;94502.28;;;1.74;64.27
11329;BME280;5719;42.714;23.732;2023-03-14T03:04:43;94504.56;;;1.58;64.83
11329;BME280;5719;42.714;23.732;2023-03-14T03:07:10;94506.06;;;1.40;66.36
11329;BME280;5719;42.714;23.732;2023-03-14T03:09:37;94507.94;;;1.35;66.14
11329;BME280;5719;42.714;23.732;2023-03-14T03:12:04;94493.50;;;1.36;67.07
11329;BME280;5719;42.714;23.732;2023-03-14T03:14:31;94510.81;;;1.49;66.95
11329;BME280;5719;42.714;23.732;2023-03-14T03:16:59;94513.31;;;1.51;67.14
11329;BME280;5719;42.714;23.732;2023-03-14T03:19:26;94522.56;;;1.54;66.88
11329;BME280;5719;42.714;23.732;2023-03-14T03:21:53;94516.63;;;1.53;67.41
11329;BME280;5719;42.714;23.732;2023-03-14T03:24:20;94524.34;;;1.52;67.11
11329;BME280;5719;42.714;23.732;2023-03-14T03:26:46;94524.47;;;1.48;67.74
11329;BME280;5719;42.714;23.732;2023-03-14T03:29:13;94526.03;;;1.53;67.55
11329;BME280;5719;42.714;23.732;2023-03-14T03:31:40;94520.84;;;1.54;67.26
11329;BME280;5719;42.714;23.732;2023-03-14T03:34:08;94516.00;;;1.48;67.69
11329;BME280;5719;42.714;23.732;2023-03-14T03:36:35;94523.47;;;1.53;67.72
11329;BME280;5719;42.714;23.732;2023-03-14T03:39:02;94515.88;;;1.51;66.03
11329;BME280;5719;42.714;23.732;2023-03-14T03:41:29;94520.94;;;1.53;65.91
11329;BME280;5719;42.714;23.732;2023-03-14T03:43:56;94515.00;;;1.52;65.80
11329;BME280;5719;42.714;23.732;2023-03-14T03:46:24;94508.28;;;1.49;65.43
11329;BME280;5719;42.714;23.732;2023-03-14T03:48:54;94515.13;;;1.49;64.93
11329;BME280;5719;42.714;23.732;2023-03-14T03:51:23;94515.56;;;1.37;65.25
11329;BME280;5719;42.714;23.732;2023-03-14T03:53:50;94517.09;;;1.18;67.92
11329;BME280;5719;42.714;23.732;2023-03-14T03:56:17;94523.84;;;1.19;67.44
11329;BME280;5719;42.714;23.732;2023-03-14T03:58:44;94529.63;;;1.24;67.62
11329;BME280;5719;42.714;23.732;2023-03-14T04:01:11;94521.91;;;1.25;66.86
11329;BME280;5719;42.714;23.732;2023-03-14T04:03:38;94520.19;;;1.26;66.99
11329;BME280;5719;42.714;23.732;2023-03-14T04:06:08;94510.97;;;1.23;66.99
11329;BME280;5719;42.714;23.732;2023-03-14T04:08:37;94503.50;;;1.17;66.33
11329;BME280;5719;42.714;23.732;2023-03-14T04:11:05;94519.50;;;1.21;67.12
11329;BME280;5719;42.714;23.732;2023-03-14T04:13:32;94513.66;;;1.19;67.30
11329;BME280;5719;42.714;23.732;2023-03-14T04:15:59;94510.38;;;1.15;66.99
11329;BME280;5719;42.714;23.732;2023-03-14T04:18:26;94506.25;;;1.13;67.11
11329;BME280;5719;42.714;23.732;2023-03-14T04:20:57;94513.88;;;1.13;67.25
11329;BME280;5719;42.714;23.732;2023-03-14T04:23:24;94508.13;;;1.08;66.60
11329;BME280;5719;42.714;23.732;2023-03-14T04:25:53;94507.34;;;1.06;67.36
11329;BME280;5719;42.714;23.732;2023-03-14T04:28:20;94506.56;;;1.04;66.95
11329;BME280;5719;42.714;23.732;2023-03-14T04:30:47;94509.22;;;1.01;67.18
11329;BME280;5719;42.714;23.732;2023-03-14T04:33:13;94503.25;;;1.02;66.65
11329;BME280;5719;42.714;23.732;2023-03-14T04:35:42;94506.78;;;0.97;66.67
11329;BME280;5719;42.714;23.732;2023-03-14T04:38:09;94503.44;;;0.95;66.51
11329;BME280;5719;42.714;23.732;2023-03-14T04:40:36;94504.38;;;0.93;67.57
11329;BME280;5719;42.714;23.732;2023-03-14T04:43:05;94513.88;;;0.88;68.16
11329;BME280;5719;42.714;23.732;2023-03-14T04:45:32;94502.09;;;0.85;68.22
11329;BME280;5719;42.714;23.732;2023-03-14T04:47:59;94497.00;;;0.85;68.73
11329;BME280;5719;42.714;23.732;2023-03-14T04:50:26;94502.09;;;0.85;68.67
11329;BME280;5719;42.714;23.732;2023-03-14T04:52:52;94501.25;;;0.85;68.39
11329;BME280;5719;42.714;23.732;2023-03-14T04:55:19;94504.59;;;0.87;68.71
11329;BME280;5719;42.714;23.732;2023-03-14T04:57:46;94504.66;;;0.85;68.25
11329;BME280;5719;42.714;23.732;2023-03-14T05:00:15;94501.25;;;0.85;68.00
11329;BME280;5719;42.714;23.732;2023-03-14T05:02:43;94508.03;;;0.86;68.77
11329;BME280;5719;42.714;23.732;2023-03-14T05:05:10;94504.75;;;0.82;69.26
11329;BME280;5719;42.714;23.732;2023-03-14T05:07:37;94502.09;;;0.85;68.24
11329;BME280;5719;42.714;23.732;2023-03-14T05:10:05;94501.88;;;0.91;68.17
11329;BME280;5719;42.714;23.732;2023-03-14T05:12:32;94486.09;;;0.82;68.40
11329;BME280;5719;42.714;23.732;2023-03-14T05:14:59;94500.34;;;0.87;68.20
11329;BME280;5719;42.714;23.732;2023-03-14T05:17:27;94496.03;;;0.89;68.69
11329;BME280;5719;42.714;23.732;2023-03-14T05:19:54;94500.13;;;0.93;69.21
11329;BME280;5719;42.714;23.732;2023-03-14T05:22:20;94501.72;;;0.96;69.63
11329;BME280;5719;42.714;23.732;2023-03-14T05:24:47;94500.78;;;0.98;69.27
11329;BME280;5719;42.714;23.732;2023-03-14T05:27:14;94503.06;;;1.06;69.83
11329;BME280;5719;42.714;23.732;2023-03-14T05:29:41;94504.50;;;1.13;69.98
11329;BME280;5719;42.714;23.732;2023-03-14T05:32:08;94502.38;;;1.26;69.96
11329;BME280;5719;42.714;23.732;2023-03-14T05:34:36;94501.59;;;1.47;70.51
11329;BME280;5719;42.714;23.732;2023-03-14T05:37:03;94495.66;;;1.70;70.26
11329;BME280;5719;42.714;23.732;2023-03-14T05:39:30;94493.69;;;1.76;68.60
11329;BME280;5719;42.714;23.732;2023-03-14T05:41:56;94491.38;;;2.14;68.69
11329;BME280;5719;42.714;23.732;2023-03-14T05:44:24;94488.78;;;2.57;66.98
11329;BME280;5719;42.714;23.732;2023-03-14T05:46:50;94484.41;;;3.00;66.19
11329;BME280;5719;42.714;23.732;2023-03-14T05:49:17;94474.22;;;3.38;65.03
11329;BME280;5719;42.714;23.732;2023-03-14T05:51:45;94471.59;;;3.77;64.24
11329;BME280;5719;42.714;23.732;2023-03-14T05:54:12;94475.84;;;3.95;64.15
11329;BME280;5719;42.714;23.732;2023-03-14T05:56:39;94468.88;;;4.16;63.89
11329;BME280;5719;42.714;23.732;2023-03-14T05:59:06;94458.97;;;4.44;61.48
11329;BME280;5719;42.714;23.732;2023-03-14T06:01:34;94467.31;;;4.31;60.98
11329;BME280;5719;42.714;23.732;2023-03-14T06:04:01;94464.09;;;4.44;59.39
11329;BME280;5719;42.714;23.732;2023-03-14T06:06:28;94469.06;;;4.82;60.10
11329;BME280;5719;42.714;23.732;2023-03-14T06:08:56;94459.47;;;5.20;57.39
11329;BME280;5719;42.714;23.732;2023-03-14T06:11:23;94465.53;;;5.34;57.36
11329;BME280;5719;42.714;23.732;2023-03-14T06:13:51;94457.03;;;5.65;57.66
11329;BME280;5719;42.714;23.732;2023-03-14T06:16:18;94460.88;;;6.05;57.34
11329;BME280;5719;42.714;23.732;2023-03-14T06:18:44;94460.44;;;6.44;55.35
11329;BME280;5719;42.714;23.732;2023-03-14T06:21:14;94461.41;;;6.71;54.67
11329;BME280;5719;42.714;23.732;2023-03-14T06:23:41;94445.53;;;7.09;54.58
11329;BME280;5719;42.714;23.732;2023-03-14T06:26:09;94450.66;;;7.65;51.84
11329;BME280;5719;42.714;23.732;2023-03-14T06:28:37;94450.97;;;8.16;50.75
11329;BME280;5719;42.714;23.732;2023-03-14T06:31:04;94447.50;;;8.56;49.34
11329;BME280;5719;42.714;23.732;2023-03-14T06:33:31;94447.75;;;8.78;48.58
11329;BME280;5719;42.714;23.732;2023-03-14T06:35:58;94432.44;;;9.02;47.54
11329;BME280;5719;42.714;23.732;2023-03-14T06:38:25;94446.28;;;9.26;48.33
11329;BME280;5719;42.714;23.732;2023-03-14T06:40:52;94440.38;;;9.37;46.26
11329;BME280;5719;42.714;23.732;2023-03-14T06:43:20;94429.31;;;9.60;47.39
11329;BME280;5719;42.714;23.732;2023-03-14T06:45:47;94426.91;;;9.82;46.63
11329;BME280;5719;42.714;23.732;2023-03-14T06:48:14;94436.66;;;10.03;46.18
11329;BME280;5719;42.714;23.732;2023-03-14T06:50:41;94432.81;;;10.21;46.18
11329;BME280;5719;42.714;23.732;2023-03-14T06:53:08;94427.38;;;10.71;45.77
11329;BME280;5719;42.714;23.732;2023-03-14T06:55:36;94432.84;;;11.25;43.63
11329;BME280;5719;42.714;23.732;2023-03-14T06:58:02;94428.06;;;11.65;42.76
11329;BME280;5719;42.714;23.732;2023-03-14T07:00:31;94432.63;;;12.06;41.18
11329;BME280;5719;42.714;23.732;2023-03-14T07:02:58;94429.34;;;12.47;39.31
11329;BME280;5719;42.714;23.732;2023-03-14T07:05:25;94426.13;;;12.66;39.60
11329;BME280;5719;42.714;23.732;2023-03-14T07:07:52;94417.88;;;12.93;38.47
11329;BME280;5719;42.714;23.732;2023-03-14T07:10:19;94423.13;;;13.23;36.46
11329;BME280;5719;42.714;23.732;2023-03-14T07:12:46;94409.25;;;13.54;36.23
11329;BME280;5719;42.714;23.732;2023-03-14T07:15:13;94407.16;;;13.79;34.65
11329;BME280;5719;42.714;23.732;2023-03-14T07:17:42;94408.63;;;13.71;34.11
11329;BME280;5719;42.714;23.732;2023-03-14T07:20:10;94393.59;;;14.15;34.17
11329;BME280;5719;42.714;23.732;2023-03-14T07:22:37;94405.44;;;14.57;33.92
11329;BME280;5719;42.714;23.732;2023-03-14T07:25:04;94404.63;;;14.76;33.30
11329;BME280;5719;42.714;23.732;2023-03-14T07:27:31;94406.56;;;14.84;33.05
11329;BME280;5719;42.714;23.732;2023-03-14T07:29:58;94400.09;;;15.16;33.54
11329;BME280;5719;42.714;23.732;2023-03-14T07:32:25;94397.16;;;15.58;32.92
11329;BME280;5719;42.714;23.732;2023-03-14T07:34:53;94389.63;;;15.92;33.10
11329;BME280;5719;42.714;23.732;2023-03-14T07:37:20;94392.44;;;16.26;31.26
11329;BME280;5719;42.714;23.732;2023-03-14T07:39:47;94397.06;;;16.59;31.38
11329;BME280;5719;42.714;23.732;2023-03-14T07:42:14;94387.81;;;17.00;31.19
11329;BME280;5719;42.714;23.732;2023-03-14T07:44:41;94380.72;;;17.36;30.68
11329;BME280;5719;42.714;23.732;2023-03-14T07:47:08;94374.72;;;17.43;29.75
11329;BME280;5719;42.714;23.732;2023-03-14T07:49:34;94381.38;;;17.38;29.00
11329;BME280;5719;42.714;23.732;2023-03-14T07:52:03;94377.41;;;17.51;29.95
11329;BME280;5719;42.714;23.732;2023-03-14T07:54:30;94369.91;;;17.82;28.88
11329;BME280;5719;42.714;23.732;2023-03-14T07:56:56;94366.91;;;18.11;29.46
11329;BME280;5719;42.714;23.732;2023-03-14T07:59:26;94362.69;;;18.18;28.23
11329;BME280;5719;42.714;23.732;2023-03-14T08:01:53;94354.88;;;18.26;29.08
11329;BME280;5719;42.714;23.732;2023-03-14T08:04:20;94356.22;;;18.38;28.50
11329;BME280;5719;42.714;23.732;2023-03-14T08:06:47;94343.69;;;18.74;27.95
11329;BME280;5719;42.714;23.732;2023-03-14T08:09:15;94343.50;;;19.24;28.07
11329;BME280;5719;42.714;23.732;2023-03-14T08:11:42;94352.69;;;19.36;28.40
11329;BME280;5719;42.714;23.732;2023-03-14T08:14:08;94350.22;;;19.51;26.21
11329;BME280;5719;42.714;23.732;2023-03-14T08:16:36;94354.69;;;19.89;26.46
11329;BME280;5719;42.714;23.732;2023-03-14T08:19:03;94352.75;;;19.83;25.85
11329;BME280;5719;42.714;23.732;2023-03-14T08:21:30;94353.47;;;20.08;26.26
11329;BME280;5719;42.714;23.732;2023-03-14T08:23:57;94355.59;;;20.13;25.55
11329;BME280;5719;42.714;23.732;2023-03-14T08:26:25;94353.69;;;19.98;25.46
11329;BME280;5719;42.714;23.732;2023-03-14T08:28:52;94346.16;;;19.48;25.42
11329;BME280;5719;42.714;23.732;2023-03-14T08:31:19;94348.94;;;19.47;25.96
11329;BME280;5719;42.714;23.732;2023-03-14T08:33:46;94345.47;;;19.38;25.47
11329;BME280;5719;42.714;23.732;2023-03-14T08:36:13;94345.66;;;18.80;25.78
11329;BME280;5719;42.714;23.732;2023-03-14T08:38:40;94351.81;;;18.39;26.83
11329;BME280;5719;42.714;23.732;2023-03-14T08:41:09;94355.88;;;18.41;26.80
11329;BME280;5719;42.714;23.732;2023-03-14T08:43:38;94334.69;;;18.85;27.00
11329;BME280;5719;42.714;23.732;2023-03-14T08:46:05;94341.75;;;18.10;27.13
11329;BME280;5719;42.714;23.732;2023-03-14T08:48:32;94339.50;;;16.60;29.36
11329;BME280;5719;42.714;23.732;2023-03-14T08:51:04;94337.69;;;17.56;28.21
11329;BME280;5719;42.714;23.732;2023-03-14T08:53:31;94330.34;;;18.43;27.67
11329;BME280;5719;42.714;23.732;2023-03-14T08:55:58;94318.28;;;19.47;26.24
11329;BME280;5719;42.714;23.732;2023-03-14T08:58:25;94321.44;;;19.82;25.89
11329;BME280;5719;42.714;23.732;2023-03-14T09:00:53;94313.81;;;20.65;25.40
11329;BME280;5719;42.714;23.732;2023-03-14T09:03:20;94316.09;;;20.90;24.94
11329;BME280;5719;42.714;23.732;2023-03-14T09:05:49;94314.94;;;21.30;24.32
11329;BME280;5719;42.714;23.732;2023-03-14T09:08:16;94319.44;;;20.62;25.42
11329;BME280;5719;42.714;23.732;2023-03-14T09:10:43;94312.69;;;21.04;25.18
11329;BME280;5719;42.714;23.732;2023-03-14T09:13:10;94312.53;;;21.58;24.98
11329;BME280;5719;42.714;23.732;2023-03-14T09:15:37;94311.03;;;21.93;24.12
11329;BME280;5719;42.714;23.732;2023-03-14T09:18:05;94308.94;;;22.39;23.67
11329;BME280;5719;42.714;23.732;2023-03-14T09:20:32;94300.22;;;22.38;23.97
11329;BME280;5719;42.714;23.732;2023-03-14T09:22:59;94298.38;;;21.74;24.10
11329;BME280;5719;42.714;23.732;2023-03-14T09:25:26;94296.91;;;22.00;24.03
11329;BME280;5719;42.714;23.732;2023-03-14T09:27:53;94278.06;;;22.69;23.24
11329;BME280;5719;42.714;23.732;2023-03-14T09:30:20;94279.69;;;22.91;23.28
11329;BME280;5719;42.714;23.732;2023-03-14T09:32:46;94271.09;;;23.31;23.85
11329;BME280;5719;42.714;23.732;2023-03-14T09:35:15;94265.69;;;23.18;22.98
11329;BME280;5719;42.714;23.732;2023-03-14T09:37:42;94267.59;;;23.52;22.23
11329;BME280;5719;42.714;23.732;2023-03-14T09:40:12;94255.56;;;23.22;23.16
11329;BME280;5719;42.714;23.732;2023-03-14T09:42:40;94254.09;;;23.40;23.67
11329;BME280;5719;42.714;23.732;2023-03-14T09:45:12;94258.75;;;23.73;22.88
11329;BME280;5719;42.714;23.732;2023-03-14T09:47:43;94243.88;;;23.59;24.48
11329;BME280;5719;42.714;23.732;2023-03-14T09:50:15;94247.50;;;23.99;22.70
11329;BME280;5719;42.714;23.732;2023-03-14T09:52:45;94243.09;;;24.12;22.33
11329;BME280;5719;42.714;23.732;2023-03-14T09:55:16;94234.03;;;24.41;22.09
11329;BME280;5719;42.714;23.732;2023-03-14T09:57:45;94233.28;;;24.60;22.64
11329;BME280;5719;42.714;23.732;2023-03-14T10:00:16;94226.97;;;24.81;22.33
11329;BME280;5719;42.714;23.732;2023-03-14T10:02:53;94216.81;;;24.78;22.26
11329;BME280;5719;42.714;23.732;2023-03-14T10:05:24;94213.81;;;24.94;21.72
11329;BME280;5719;42.714;23.732;2023-03-14T10:07:51;94211.72;;;25.29;21.36
11329;BME280;5719;42.714;23.732;2023-03-14T10:10:19;94198.66;;;25.67;21.18
11329;BME280;5719;42.714;23.732;2023-03-14T10:12:54;94193.41;;;25.98;21.18
11329;BME280;5719;42.714;23.732;2023-03-14T10:15:25;94180.22;;;25.08;21.63
11329;BME280;5719;42.714;23.732;2023-03-14T10:17:52;94183.47;;;24.77;21.78
11329;BME280;5719;42.714;23.732;2023-03-14T10:20:39;94172.31;;;24.88;21.92
11329;BME280;5719;42.714;23.732;2023-03-14T10:23:20;94165.13;;;25.28;21.28
11329;BME280;5719;42.714;23.732;2023-03-14T10:26:00;94155.31;;;24.10;22.56
11329;BME280;5719;42.714;23.732;2023-03-14T10:28:30;94148.13;;;23.03;23.12
11329;BME280;5719;42.714;23.732;2023-03-14T10:30:59;94142.84;;;23.03;22.20
11329;BME280;5719;42.714;23.732;2023-03-14T10:33:28;94138.78;;;23.34;22.69
11329;BME280;5719;42.714;23.732;2023-03-14T10:35:58;94131.41;;;24.25;22.22
11329;BME280;5719;42.714;23.732;2023-03-14T10:38:27;94130.31;;;24.00;21.63
11329;BME280;5719;42.714;23.732;2023-03-14T10:40:55;94125.69;;;24.15;21.99
11329;BME280;5719;42.714;23.732;2023-03-14T10:43:25;94118.78;;;24.60;21.91
11329;BME280;5719;42.714;23.732;2023-03-14T10:45:55;94124.72;;;24.88;21.83
11329;BME280;5719;42.714;23.732;2023-03-14T10:48:29;94116.56;;;24.37;21.18
11329;BME280;5719;42.714;23.732;2023-03-14T10:51:01;94111.28;;;24.37;22.05
11329;BME280;5719;42.714;23.732;2023-03-14T10:53:34;94108.38;;;24.12;22.14
11329;BME280;5719;42.714;23.732;2023-03-14T10:56:05;94098.31;;;23.62;22.43
11329;BME280;5719;42.714;23.732;2023-03-14T10:58:37;94085.19;;;23.27;21.49
11329;BME280;5719;42.714;23.732;2023-03-14T11:01:16;94083.22;;;22.95;21.96
11329;BME280;5719;42.714;23.732;2023-03-14T11:03:54;94074.16;;;23.17;22.43
11329;BME280;5719;42.714;23.732;2023-03-14T11:06:31;94068.25;;;23.09;21.86
11329;BME280;5719;42.714;23.732;2023-03-14T11:09:07;94061.75;;;23.05;22.21
11329;BME280;5719;42.714;23.732;2023-03-14T11:11:38;94054.13;;;22.82;22.04
11329;BME280;5719;42.714;23.732;2023-03-14T11:14:14;94051.28;;;22.77;22.19
11329;BME280;5719;42.714;23.732;2023-03-14T11:16:52;94049.97;;;23.01;22.15
11329;BME280;5719;42.714;23.732;2023-03-14T11:19:42;94043.19;;;24.39;20.79
11329;BME280;5719;42.714;23.732;2023-03-14T11:22:20;94044.78;;;24.53;21.68
11329;BME280;5719;42.714;23.732;2023-03-14T11:27:43;94023.16;;;24.96;21.23
11329;BME280;5719;42.714;23.732;2023-03-14T11:30:18;94021.84;;;24.21;20.87
11329;BME280;5719;42.714;23.732;2023-03-14T11:32:47;94008.19;;;23.78;22.00
11329;BME280;5719;42.714;23.732;2023-03-14T11:35:22;94001.88;;;23.53;21.62
11329;BME280;5719;42.714;23.732;2023-03-14T11:37:55;93993.75;;;23.54;22.25
11329;BME280;5719;42.714;23.732;2023-03-14T11:40:26;93992.63;;;23.29;23.01
11329;BME280;5719;42.714;23.732;2023-03-14T11:43:08;93992.91;;;23.47;22.13
11329;BME280;5719;42.714;23.732;2023-03-14T11:45:38;93973.59;;;23.40;22.52
11329;BME280;5719;42.714;23.732;2023-03-14T11:48:16;93972.34;;;23.36;22.28
11329;BME280;5719;42.714;23.732;2023-03-14T11:50:47;93965.72;;;22.79;22.81
11329;BME280;5719;42.714;23.732;2023-03-14T11:53:21;93961.00;;;23.35;22.90
11329;BME280;5719;42.714;23.732;2023-03-14T11:55:49;93967.19;;;23.82;22.17
11329;BME280;5719;42.714;23.732;2023-03-14T11:58:20;93954.16;;;24.26;21.57
11329;BME280;5719;42.714;23.732;2023-03-14T12:00:50;93953.78;;;23.97;21.53
11329;BME280;5719;42.714;23.732;2023-03-14T12:03:26;93949.66;;;23.35;22.36
11329;BME280;5719;42.714;23.732;2023-03-14T12:06:05;93950.09;;;23.52;21.79
11329;BME280;5719;42.714;23.732;2023-03-14T12:08:46;93928.41;;;24.79;20.79
11329;BME280;5719;42.714;23.732;2023-03-14T12:11:19;93935.66;;;24.39;20.99
11329;BME280;5719;42.714;23.732;2023-03-14T12:13:49;93928.19;;;23.44;21.58
11329;BME280;5719;42.714;23.732;2023-03-14T12:16:31;93913.44;;;22.96;22.76
11329;BME280;5719;42.714;23.732;2023-03-14T12:22:08;93912.44;;;22.49;21.99
11329;BME280;5719;42.714;23.732;2023-03-14T12:24:48;93906.16;;;23.05;22.77
11329;BME280;5719;42.714;23.732;2023-03-14T12:27:44;93908.03;;;24.09;21.86
11329;BME280;5719;42.714;23.732;2023-03-14T12:30:27;93906.25;;;23.57;20.51
11329;BME280;5719;42.714;23.732;2023-03-14T12:36:04;93893.44;;;23.34;20.55
11329;BME280;5719;42.714;23.732;2023-03-14T12:38:45;93895.88;;;23.42;21.10
11329;BME280;5719;42.714;23.732;2023-03-14T12:41:19;93885.75;;;23.53;21.15
11329;BME280;5719;42.714;23.732;2023-03-14T12:43:47;93882.03;;;24.26;19.88
11329;BME280;5719;42.714;23.732;2023-03-14T12:46:24;93893.25;;;24.15;20.09
11329;BME280;5719;42.714;23.732;2023-03-14T12:48:56;93874.53;;;23.90;19.67
11329;BME280;5719;42.714;23.732;2023-03-14T12:51:34;93873.53;;;23.32;20.06
11329;BME280;5719;42.714;23.732;2023-03-14T12:54:27;93865.59;;;22.45;21.00
11329;BME280;5719;42.714;23.732;2023-03-14T12:57:08;93868.22;;;22.38;20.88
11329;BME280;5719;42.714;23.732;2023-03-14T12:59:46;93859.75;;;23.17;20.61
11329;BME280;5719;42.714;23.732;2023-03-14T13:02:23;93859.94;;;23.02;20.01
11329;BME280;5719;42.714;23.732;2023-03-14T13:04:52;93859.56;;;23.31;20.62
11329;BME280;5719;42.714;23.732;2023-03-14T13:07:33;93856.66;;;23.99;20.20
11329;BME280;5719;42.714;23.732;2023-03-14T13:10:13;93840.66;;;23.15;20.61
11329;BME280;5719;42.714;23.732;2023-03-14T13:12:48;93853.03;;;23.08;20.89
11329;BME280;5719;42.714;23.732;2023-03-14T13:15:25;93844.34;;;22.46;21.48
11329;BME280;5719;42.714;23.732;2023-03-14T13:17:59;93835.16;;;22.90;21.56
11329;BME280;5719;42.714;23.732;2023-03-14T13:20:31;93842.88;;;23.24;20.91
11329;BME280;5719;42.714;23.732;2023-03-14T13:22:59;93838.78;;;22.76;21.56
11329;BME280;5719;42.714;23.732;2023-03-14T13:25:30;93834.66;;;22.67;21.19